sensor_id;sensor_type;location;lat;lon;timestamp;temperature;humidity
3921;DHT22;1975;49.356;6.816;2023-06-14T00:01:33;21.30;79.20
3921;DHT22;1975;49.356;6.816;2023-06-14T00:04:00;21.30;79.20
3921;DHT22;1975;49.356;6.816;2023-06-14T00:06:26;21.20;79.30
3921;DHT22;1975;49.356;6.816;2023-06-14T00:08:52;21.20;79.40
3921;DHT22;1975;49.356;6.816;2023-06-14T00:11:19;21.20;79.40
3921;DHT22;1975;49.356;6.816;2023-06-14T00:13:45;21.20;79.40
3921;DHT22;1975;49.356;6.816;2023-06-14T00:16:10;21.20;79.50
3921;DHT22;1975;49.356;6.816;2023-06-14T00:18:36;21.10;79.50
3921;DHT22;1975;49.356;6.816;2023-06-14T00:21:03;21.10;79.50
3921;DHT22;1975;49.356;6.816;2023-06-14T00:23:29;21.10;79.60
3921;DHT22;1975;49.356;6.816;2023-06-14T00:25:55;21.10;79.70
3921;DHT22;1975;49.356;6.816;2023-06-14T00:28:20;21.10;79.70
3921;DHT22;1975;49.356;6.816;2023-06-14T00:30:46;21.10;79.70
3921;DHT22;1975;49.356;6.816;2023-06-14T00:33:12;21.00;79.70
3921;DHT22;1975;49.356;6.816;2023-06-14T00:35:37;21.00;79.80
3921;DHT22;1975;49.356;6.816;2023-06-14T00:38:03;21.00;79.70
3921;DHT22;1975;49.356;6.816;2023-06-14T00:40:28;21.00;79.80
3921;DHT22;1975;49.356;6.816;2023-06-14T00:42:54;20.90;79.90
3921;DHT22;1975;49.356;6.816;2023-06-14T00:45:19;20.90;80.00
3921;DHT22;1975;49.356;6.816;2023-06-14T00:47:45;20.90;80.00
3921;DHT22;1975;49.356;6.816;2023-06-14T00:50:11;20.90;80.10
3921;DHT22;1975;49.356;6.816;2023-06-14T00:52:37;20.90;80.10
3921;DHT22;1975;49.356;6.816;2023-06-14T00:55:02;20.80;80.10
3921;DHT22;1975;49.356;6.816;2023-06-14T00:57:28;20.80;80.10
3921;DHT22;1975;49.356;6.816;2023-06-14T00:59:54;20.80;80.30
3921;DHT22;1975;49.356;6.816;2023-06-14T01:02:20;20.80;80.30
3921;DHT22;1975;49.356;6.816;2023-06-14T01:04:47;20.80;80.20
3921;DHT22;1975;49.356;6.816;2023-06-14T01:07:21;20.70;80.20
3921;DHT22;1975;49.356;6.816;2023-06-14T01:09:57;20.70;80.30
3921;DHT22;1975;49.356;6.816;2023-06-14T01:14:52;20.70;80.40
3921;DHT22;1975;49.356;6.816;2023-06-14T01:17:19;20.60;80.40
3921;DHT22;1975;49.356;6.816;2023-06-14T01:19:45;20.60;80.50
3921;DHT22;1975;49.356;6.816;2023-06-14T01:22:11;20.60;80.50
3921;DHT22;1975;49.356;6.816;2023-06-14T01:24:36;20.60;80.50
3921;DHT22;1975;49.356;6.816;2023-06-14T01:27:04;20.60;80.50
3921;DHT22;1975;49.356;6.816;2023-06-14T01:29:30;20.60;80.60
3921;DHT22;1975;49.356;6.816;2023-06-14T01:32:01;20.60;80.60
3921;DHT22;1975;49.356;6.816;2023-06-14T01:34:27;20.50;80.60
3921;DHT22;1975;49.356;6.816;2023-06-14T01:36:52;20.50;80.60
3921;DHT22;1975;49.356;6.816;2023-06-14T01:39:20;20.50;80.70
3921;DHT22;1975;49.356;6.816;2023-06-14T01:41:46;20.50;80.70
3921;DHT22;1975;49.356;6.816;2023-06-14T01:44:12;20.40;80.60
3921;DHT22;1975;49.356;6.816;2023-06-14T01:46:39;20.40;80.80
3921;DHT22;1975;49.356;6.816;2023-06-14T01:49:05;20.40;80.80
3921;DHT22;1975;49.356;6.816;2023-06-14T01:51:31;20.40;80.90
3921;DHT22;1975;49.356;6.816;2023-06-14T01:53:56;20.40;80.90
3921;DHT22;1975;49.356;6.816;2023-06-14T01:56:22;20.40;81.00
3921;DHT22;1975;49.356;6.816;2023-06-14T01:58:48;20.30;81.00
3921;DHT22;1975;49.356;6.816;2023-06-14T02:01:15;20.30;81.00
3921;DHT22;1975;49.356;6.816;2023-06-14T02:03:41;20.30;81.00
3921;DHT22;1975;49.356;6.816;2023-06-14T02:06:07;20.30;81.00
3921;DHT22;1975;49.356;6.816;2023-06-14T02:08:33;20.30;81.10
3921;DHT22;1975;49.356;6.816;2023-06-14T02:10:58;20.20;81.10
3921;DHT22;1975;49.356;6.816;2023-06-14T02:13:23;20.20;81.30
3921;DHT22;1975;49.356;6.816;2023-06-14T02:15:49;20.20;81.30
3921;DHT22;1975;49.356;6.816;2023-06-14T02:18:20;20.20;81.30
3921;DHT22;1975;49.356;6.816;2023-06-14T02:20:45;20.20;81.30
3921;DHT22;1975;49.356;6.816;2023-06-14T02:23:11;20.20;82.10
3921;DHT22;1975;49.356;6.816;2023-06-14T02:25:36;20.10;81.30
3921;DHT22;1975;49.356;6.816;2023-06-14T02:28:02;20.10;81.20
3921;DHT22;1975;49.356;6.816;2023-06-14T02:30:27;20.10;81.30
3921;DHT22;1975;49.356;6.816;2023-06-14T02:32:53;20.10;81.30
3921;DHT22;1975;49.356;6.816;2023-06-14T02:35:18;20.10;81.30
3921;DHT22;1975;49.356;6.816;2023-06-14T02:37:45;20.10;81.30
3921;DHT22;1975;49.356;6.816;2023-06-14T02:40:11;20.00;81.30
3921;DHT22;1975;49.356;6.816;2023-06-14T02:42:36;20.00;81.40
3921;DHT22;1975;49.356;6.816;2023-06-14T02:45:02;20.00;81.40
3921;DHT22;1975;49.356;6.816;2023-06-14T02:47:29;20.00;81.40
3921;DHT22;1975;49.356;6.816;2023-06-14T02:49:55;20.00;81.50
3921;DHT22;1975;49.356;6.816;2023-06-14T02:52:20;19.90;81.50
3921;DHT22;1975;49.356;6.816;2023-06-14T02:54:47;19.90;81.60
3921;DHT22;1975;49.356;6.816;2023-06-14T02:57:14;19.90;81.70
3921;DHT22;1975;49.356;6.816;2023-06-14T02:59:40;19.90;81.70
3921;DHT22;1975;49.356;6.816;2023-06-14T03:02:05;19.90;81.70
3921;DHT22;1975;49.356;6.816;2023-06-14T03:04:30;19.80;81.70
3921;DHT22;1975;49.356;6.816;2023-06-14T03:07:02;19.80;81.80
3921;DHT22;1975;49.356;6.816;2023-06-14T03:09:37;19.80;81.70
3921;DHT22;1975;49.356;6.816;2023-06-14T03:12:03;19.80;81.80
3921;DHT22;1975;49.356;6.816;2023-06-14T03:14:29;19.80;81.80
3921;DHT22;1975;49.356;6.816;2023-06-14T03:16:56;19.80;81.90
3921;DHT22;1975;49.356;6.816;2023-06-14T03:19:22;19.80;81.90
3921;DHT22;1975;49.356;6.816;2023-06-14T03:21:47;19.70;81.80
3921;DHT22;1975;49.356;6.816;2023-06-14T03:24:13;19.70;81.90
3921;DHT22;1975;49.356;6.816;2023-06-14T03:26:38;19.70;82.00
3921;DHT22;1975;49.356;6.816;2023-06-14T03:29:04;19.70;82.10
3921;DHT22;1975;49.356;6.816;2023-06-14T03:31:29;19.70;82.10
3921;DHT22;1975;49.356;6.816;2023-06-14T03:33:58;19.60;82.10
3921;DHT22;1975;49.356;6.816;2023-06-14T03:36:24;19.60;82.10
3921;DHT22;1975;49.356;6.816;2023-06-14T03:38:51;19.60;82.10
3921;DHT22;1975;49.356;6.816;2023-06-14T03:41:16;19.60;82.00
3921;DHT22;1975;49.356;6.816;2023-06-14T03:43:42;19.60;82.00
3921;DHT22;1975;49.356;6.816;2023-06-14T03:46:07;19.60;82.10
3921;DHT22;1975;49.356;6.816;2023-06-14T03:48:33;19.60;82.20
3921;DHT22;1975;49.356;6.816;2023-06-14T03:50:58;19.60;82.20
3921;DHT22;1975;49.356;6.816;2023-06-14T03:53:24;19.50;82.20
3921;DHT22;1975;49.356;6.816;2023-06-14T03:55:49;19.50;82.20
3921;DHT22;1975;49.356;6.816;2023-06-14T03:58:17;19.50;82.30
3921;DHT22;1975;49.356;6.816;2023-06-14T04:00:43;19.50;82.40
3921;DHT22;1975;49.356;6.816;2023-06-14T04:03:08;19.50;82.50
3921;DHT22;1975;49.356;6.816;2023-06-14T04:05:34;19.50;82.40
3921;DHT22;1975;49.356;6.816;2023-06-14T04:07:59;19.50;82.60
3921;DHT22;1975;49.356;6.816;2023-06-14T04:10:26;19.50;82.60
3921;DHT22;1975;49.356;6.816;2023-06-14T04:12:51;19.50;82.60
3921;DHT22;1975;49.356;6.816;2023-06-14T04:15:17;19.40;82.70
3921;DHT22;1975;49.356;6.816;2023-06-14T04:17:43;19.40;83.50
3921;DHT22;1975;49.356;6.816;2023-06-14T04:20:08;19.40;82.80
3921;DHT22;1975;49.356;6.816;2023-06-14T04:22:35;19.40;82.90
3921;DHT22;1975;49.356;6.816;2023-06-14T04:25:01;19.40;83.00
3921;DHT22;1975;49.356;6.816;2023-06-14T04:27:27;19.40;83.10
3921;DHT22;1975;49.356;6.816;2023-06-14T04:29:54;19.40;83.00
3921;DHT22;1975;49.356;6.816;2023-06-14T04:32:25;19.40;83.10
3921;DHT22;1975;49.356;6.816;2023-06-14T04:34:53;19.40;83.20
3921;DHT22;1975;49.356;6.816;2023-06-14T04:37:19;19.50;83.50
3921;DHT22;1975;49.356;6.816;2023-06-14T04:39:46;19.40;83.40
3921;DHT22;1975;49.356;6.816;2023-06-14T04:42:12;19.40;83.50
3921;DHT22;1975;49.356;6.816;2023-06-14T04:44:42;19.50;83.60
3921;DHT22;1975;49.356;6.816;2023-06-14T04:47:09;19.50;83.60
3921;DHT22;1975;49.356;6.816;2023-06-14T04:49:34;19.50;83.70
3921;DHT22;1975;49.356;6.816;2023-06-14T04:52:00;19.50;84.00
3921;DHT22;1975;49.356;6.816;2023-06-14T04:54:28;19.50;84.00
3921;DHT22;1975;49.356;6.816;2023-06-14T04:56:56;19.50;84.10
3921;DHT22;1975;49.356;6.816;2023-06-14T04:59:22;19.50;84.20
3921;DHT22;1975;49.356;6.816;2023-06-14T05:01:51;19.50;84.10
3921;DHT22;1975;49.356;6.816;2023-06-14T05:04:17;19.50;84.30
3921;DHT22;1975;49.356;6.816;2023-06-14T05:06:43;19.50;84.50
3921;DHT22;1975;49.356;6.816;2023-06-14T05:09:13;19.50;84.60
3921;DHT22;1975;49.356;6.816;2023-06-14T05:11:39;19.60;85.00
3921;DHT22;1975;49.356;6.816;2023-06-14T05:14:05;19.50;85.10
3921;DHT22;1975;49.356;6.816;2023-06-14T05:16:31;19.50;85.10
3921;DHT22;1975;49.356;6.816;2023-06-14T05:18:57;19.60;85.40
3921;DHT22;1975;49.356;6.816;2023-06-14T05:21:23;19.60;85.50
3921;DHT22;1975;49.356;6.816;2023-06-14T05:23:49;19.60;85.70
3921;DHT22;1975;49.356;6.816;2023-06-14T05:26:16;19.60;85.80
3921;DHT22;1975;49.356;6.816;2023-06-14T05:28:41;19.70;85.80
3921;DHT22;1975;49.356;6.816;2023-06-14T05:31:07;19.60;85.70
3921;DHT22;1975;49.356;6.816;2023-06-14T05:33:32;19.70;85.80
3921;DHT22;1975;49.356;6.816;2023-06-14T05:35:57;19.70;85.80
3921;DHT22;1975;49.356;6.816;2023-06-14T05:38:23;19.80;85.80
3921;DHT22;1975;49.356;6.816;2023-06-14T05:40:48;19.80;85.80
3921;DHT22;1975;49.356;6.816;2023-06-14T05:43:14;19.80;85.70
3921;DHT22;1975;49.356;6.816;2023-06-14T05:45:39;19.80;85.80
3921;DHT22;1975;49.356;6.816;2023-06-14T05:48:05;19.80;85.90
3921;DHT22;1975;49.356;6.816;2023-06-14T05:50:31;19.80;86.00
3921;DHT22;1975;49.356;6.816;2023-06-14T05:52:56;19.90;86.00
3921;DHT22;1975;49.356;6.816;2023-06-14T05:55:21;19.90;85.90
3921;DHT22;1975;49.356;6.816;2023-06-14T05:57:47;19.90;85.90
3921;DHT22;1975;49.356;6.816;2023-06-14T06:00:13;19.90;86.20
3921;DHT22;1975;49.356;6.816;2023-06-14T06:02:43;19.90;86.30
3921;DHT22;1975;49.356;6.816;2023-06-14T06:05:09;20.00;86.50
3921;DHT22;1975;49.356;6.816;2023-06-14T06:07:35;20.00;86.90
3921;DHT22;1975;49.356;6.816;2023-06-14T06:10:00;20.10;87.30
3921;DHT22;1975;49.356;6.816;2023-06-14T06:12:26;20.10;87.30
3921;DHT22;1975;49.356;6.816;2023-06-14T06:14:51;20.10;87.40
3921;DHT22;1975;49.356;6.816;2023-06-14T06:17:16;20.10;87.40
3921;DHT22;1975;49.356;6.816;2023-06-14T06:19:42;20.20;87.50
3921;DHT22;1975;49.356;6.816;2023-06-14T06:22:08;20.20;87.50
3921;DHT22;1975;49.356;6.816;2023-06-14T06:24:33;20.20;87.30
3921;DHT22;1975;49.356;6.816;2023-06-14T06:26:59;20.30;87.10
3921;DHT22;1975;49.356;6.816;2023-06-14T06:29:25;20.30;87.40
3921;DHT22;1975;49.356;6.816;2023-06-14T06:31:51;20.30;87.20
3921;DHT22;1975;49.356;6.816;2023-06-14T06:34:16;20.30;87.00
3921;DHT22;1975;49.356;6.816;2023-06-14T06:36:42;20.40;86.60
3921;DHT22;1975;49.356;6.816;2023-06-14T06:39:07;20.40;86.70
3921;DHT22;1975;49.356;6.816;2023-06-14T06:41:38;20.40;87.00
3921;DHT22;1975;49.356;6.816;2023-06-14T06:44:08;20.40;86.60
3921;DHT22;1975;49.356;6.816;2023-06-14T06:46:36;20.40;86.90
3921;DHT22;1975;49.356;6.816;2023-06-14T06:49:05;20.50;86.70
3921;DHT22;1975;49.356;6.816;2023-06-14T06:51:31;20.50;86.80
3921;DHT22;1975;49.356;6.816;2023-06-14T06:53:56;20.50;87.10
3921;DHT22;1975;49.356;6.816;2023-06-14T06:56:21;20.50;87.50
3921;DHT22;1975;49.356;6.816;2023-06-14T06:58:50;20.50;88.30
3921;DHT22;1975;49.356;6.816;2023-06-14T07:01:16;20.40;89.10
3921;DHT22;1975;49.356;6.816;2023-06-14T07:03:42;20.40;90.20
3921;DHT22;1975;49.356;6.816;2023-06-14T07:06:07;20.70;89.30
3921;DHT22;1975;49.356;6.816;2023-06-14T07:08:33;20.30;88.90
3921;DHT22;1975;49.356;6.816;2023-06-14T07:10:58;20.70;89.10
3921;DHT22;1975;49.356;6.816;2023-06-14T07:13:24;21.20;89.90
3921;DHT22;1975;49.356;6.816;2023-06-14T07:15:49;20.50;90.40
3921;DHT22;1975;49.356;6.816;2023-06-14T07:18:15;20.10;89.70
3921;DHT22;1975;49.356;6.816;2023-06-14T07:20:41;20.70;90.30
3921;DHT22;1975;49.356;6.816;2023-06-14T07:23:06;20.60;90.70
3921;DHT22;1975;49.356;6.816;2023-06-14T07:25:32;20.50;90.30
3921;DHT22;1975;49.356;6.816;2023-06-14T07:27:57;20.50;90.00
3921;DHT22;1975;49.356;6.816;2023-06-14T07:30:23;20.80;90.50
3921;DHT22;1975;49.356;6.816;2023-06-14T07:32:51;20.40;90.40
3921;DHT22;1975;49.356;6.816;2023-06-14T07:35:17;20.80;90.50
3921;DHT22;1975;49.356;6.816;2023-06-14T07:37:43;20.80;89.70
3921;DHT22;1975;49.356;6.816;2023-06-14T07:40:08;20.90;89.60
3921;DHT22;1975;49.356;6.816;2023-06-14T07:42:35;20.80;90.90
3921;DHT22;1975;49.356;6.816;2023-06-14T07:45:01;20.60;90.10
3921;DHT22;1975;49.356;6.816;2023-06-14T07:47:27;20.90;88.10
3921;DHT22;1975;49.356;6.816;2023-06-14T07:49:52;20.70;90.80
3921;DHT22;1975;49.356;6.816;2023-06-14T07:52:18;20.90;89.40
3921;DHT22;1975;49.356;6.816;2023-06-14T07:54:43;21.00;90.00
3921;DHT22;1975;49.356;6.816;2023-06-14T07:57:09;20.40;90.30
3921;DHT22;1975;49.356;6.816;2023-06-14T07:59:34;20.50;90.00
3921;DHT22;1975;49.356;6.816;2023-06-14T08:02:00;20.70;90.20
3921;DHT22;1975;49.356;6.816;2023-06-14T08:04:26;20.70;89.00
3921;DHT22;1975;49.356;6.816;2023-06-14T08:06:51;20.40;88.30
3921;DHT22;1975;49.356;6.816;2023-06-14T08:09:16;20.70;88.60
3921;DHT22;1975;49.356;6.816;2023-06-14T08:11:42;20.80;88.40
3921;DHT22;1975;49.356;6.816;2023-06-14T08:14:08;20.80;90.30
3921;DHT22;1975;49.356;6.816;2023-06-14T08:16:33;21.10;89.50
3921;DHT22;1975;49.356;6.816;2023-06-14T08:18:59;20.80;89.30
3921;DHT22;1975;49.356;6.816;2023-06-14T08:21:24;21.20;87.20
3921;DHT22;1975;49.356;6.816;2023-06-14T08:23:52;21.30;86.50
3921;DHT22;1975;49.356;6.816;2023-06-14T08:26:19;21.30;85.30
3921;DHT22;1975;49.356;6.816;2023-06-14T08:28:44;21.30;85.10
3921;DHT22;1975;49.356;6.816;2023-06-14T08:31:10;21.30;85.50
3921;DHT22;1975;49.356;6.816;2023-06-14T08:33:36;21.20;85.20
3921;DHT22;1975;49.356;6.816;2023-06-14T08:36:02;21.30;85.50
3921;DHT22;1975;49.356;6.816;2023-06-14T08:38:27;21.30;84.10
3921;DHT22;1975;49.356;6.816;2023-06-14T08:40:53;21.30;84.20
3921;DHT22;1975;49.356;6.816;2023-06-14T08:43:22;21.20;84.20
3921;DHT22;1975;49.356;6.816;2023-06-14T08:45:47;21.20;83.40
3921;DHT22;1975;49.356;6.816;2023-06-14T08:48:13;21.10;82.90
3921;DHT22;1975;49.356;6.816;2023-06-14T08:50:42;21.30;83.00
3921;DHT22;1975;49.356;6.816;2023-06-14T08:53:08;21.10;84.20
3921;DHT22;1975;49.356;6.816;2023-06-14T08:55:37;21.40;84.10
3921;DHT22;1975;49.356;6.816;2023-06-14T08:58:04;21.20;83.90
3921;DHT22;1975;49.356;6.816;2023-06-14T09:00:30;21.50;83.70
3921;DHT22;1975;49.356;6.816;2023-06-14T09:02:56;21.50;83.80
3921;DHT22;1975;49.356;6.816;2023-06-14T09:05:23;21.50;84.00
3921;DHT22;1975;49.356;6.816;2023-06-14T09:07:49;21.50;84.20
3921;DHT22;1975;49.356;6.816;2023-06-14T09:10:15;21.50;84.30
3921;DHT22;1975;49.356;6.816;2023-06-14T09:12:41;21.50;84.30
3921;DHT22;1975;49.356;6.816;2023-06-14T09:15:07;21.50;84.40
3921;DHT22;1975;49.356;6.816;2023-06-14T09:17:37;21.50;84.50
3921;DHT22;1975;49.356;6.816;2023-06-14T09:20:02;21.50;84.40
3921;DHT22;1975;49.356;6.816;2023-06-14T09:22:31;21.50;84.00
3921;DHT22;1975;49.356;6.816;2023-06-14T09:24:57;21.60;83.50
3921;DHT22;1975;49.356;6.816;2023-06-14T09:27:23;21.60;83.60
3921;DHT22;1975;49.356;6.816;2023-06-14T09:29:50;21.60;84.70
3921;DHT22;1975;49.356;6.816;2023-06-14T09:32:15;21.70;84.20
3921;DHT22;1975;49.356;6.816;2023-06-14T09:34:41;21.70;84.20
3921;DHT22;1975;49.356;6.816;2023-06-14T09:37:06;21.70;83.90
3921;DHT22;1975;49.356;6.816;2023-06-14T09:39:32;21.80;83.90
3921;DHT22;1975;49.356;6.816;2023-06-14T09:41:57;21.70;83.70
3921;DHT22;1975;49.356;6.816;2023-06-14T09:44:23;21.70;83.70
3921;DHT22;1975;49.356;6.816;2023-06-14T09:46:53;21.70;83.80
3921;DHT22;1975;49.356;6.816;2023-06-14T09:49:20;21.80;83.80
3921;DHT22;1975;49.356;6.816;2023-06-14T09:51:46;21.80;83.90
3921;DHT22;1975;49.356;6.816;2023-06-14T09:54:16;21.80;83.80
3921;DHT22;1975;49.356;6.816;2023-06-14T09:56:42;21.80;83.60
3921;DHT22;1975;49.356;6.816;2023-06-14T09:59:09;21.80;83.60
3921;DHT22;1975;49.356;6.816;2023-06-14T10:01:35;21.80;83.60
3921;DHT22;1975;49.356;6.816;2023-06-14T10:04:05;21.80;83.60
3921;DHT22;1975;49.356;6.816;2023-06-14T10:06:32;21.80;83.60
3921;DHT22;1975;49.356;6.816;2023-06-14T10:09:02;21.90;83.70
3921;DHT22;1975;49.356;6.816;2023-06-14T10:11:28;21.90;83.80
3921;DHT22;1975;49.356;6.816;2023-06-14T10:13:54;21.90;84.00
3921;DHT22;1975;49.356;6.816;2023-06-14T10:16:23;21.90;84.10
3921;DHT22;1975;49.356;6.816;2023-06-14T10:18:51;21.90;84.20
3921;DHT22;1975;49.356;6.816;2023-06-14T10:21:22;21.90;84.00
3921;DHT22;1975;49.356;6.816;2023-06-14T10:23:49;21.90;84.00
3921;DHT22;1975;49.356;6.816;2023-06-14T10:26:21;21.90;83.80
3921;DHT22;1975;49.356;6.816;2023-06-14T10:28:57;21.90;83.70
3921;DHT22;1975;49.356;6.816;2023-06-14T10:31:23;22.00;83.40
3921;DHT22;1975;49.356;6.816;2023-06-14T10:34:04;22.00;83.40
3921;DHT22;1975;49.356;6.816;2023-06-14T10:36:30;22.00;83.50
3921;DHT22;1975;49.356;6.816;2023-06-14T10:41:34;22.00;83.30
3921;DHT22;1975;49.356;6.816;2023-06-14T10:46:48;22.00;83.20
3921;DHT22;1975;49.356;6.816;2023-06-14T10:49:17;22.00;83.00
3921;DHT22;1975;49.356;6.816;2023-06-14T10:51:46;22.00;82.90
3921;DHT22;1975;49.356;6.816;2023-06-14T10:54:15;22.00;83.00
3921;DHT22;1975;49.356;6.816;2023-06-14T10:56:50;22.00;83.10
3921;DHT22;1975;49.356;6.816;2023-06-14T10:59:17;22.10;83.30
3921;DHT22;1975;49.356;6.816;2023-06-14T11:04:20;22.10;83.00
3921;DHT22;1975;49.356;6.816;2023-06-14T11:11:52;22.10;82.80
3921;DHT22;1975;49.356;6.816;2023-06-14T11:14:19;22.10;82.80
3921;DHT22;1975;49.356;6.816;2023-06-14T11:16:48;22.10;82.90
3921;DHT22;1975;49.356;6.816;2023-06-14T11:19:14;22.10;83.00
3921;DHT22;1975;49.356;6.816;2023-06-14T11:21:40;22.10;83.10
3921;DHT22;1975;49.356;6.816;2023-06-14T11:24:09;22.10;83.00
3921;DHT22;1975;49.356;6.816;2023-06-14T11:26:37;22.10;82.80
3921;DHT22;1975;49.356;6.816;2023-06-14T11:29:02;22.20;82.90
3921;DHT22;1975;49.356;6.816;2023-06-14T11:31:28;22.20;82.90
3921;DHT22;1975;49.356;6.816;2023-06-14T11:33:54;22.20;83.00
3921;DHT22;1975;49.356;6.816;2023-06-14T11:36:20;22.20;83.00
3921;DHT22;1975;49.356;6.816;2023-06-14T11:38:45;22.20;83.00
3921;DHT22;1975;49.356;6.816;2023-06-14T11:41:11;22.30;83.10
3921;DHT22;1975;49.356;6.816;2023-06-14T11:43:36;22.30;83.30
3921;DHT22;1975;49.356;6.816;2023-06-14T11:46:02;22.30;83.20
3921;DHT22;1975;49.356;6.816;2023-06-14T11:48:38;22.30;83.20
3921;DHT22;1975;49.356;6.816;2023-06-14T11:51:04;22.30;83.20
3921;DHT22;1975;49.356;6.816;2023-06-14T11:53:30;22.30;83.20
3921;DHT22;1975;49.356;6.816;2023-06-14T11:55:56;22.30;83.20
3921;DHT22;1975;49.356;6.816;2023-06-14T11:58:22;22.30;83.10
3921;DHT22;1975;49.356;6.816;2023-06-14T12:00:51;22.30;83.10
3921;DHT22;1975;49.356;6.816;2023-06-14T12:03:17;22.30;83.10
3921;DHT22;1975;49.356;6.816;2023-06-14T12:05:42;22.30;83.20
3921;DHT22;1975;49.356;6.816;2023-06-14T12:08:09;22.30;83.30
3921;DHT22;1975;49.356;6.816;2023-06-14T12:10:40;22.60;81.80
3921;DHT22;1975;49.356;6.816;2023-06-14T12:13:09;23.10;81.90
3921;DHT22;1975;49.356;6.816;2023-06-14T12:15:34;23.60;81.00
3921;DHT22;1975;49.356;6.816;2023-06-14T12:18:00;23.70;79.00
3921;DHT22;1975;49.356;6.816;2023-06-14T12:20:29;23.60;78.80
3921;DHT22;1975;49.356;6.816;2023-06-14T12:22:56;23.70;79.10
3921;DHT22;1975;49.356;6.816;2023-06-14T12:27:54;23.30;80.00
3921;DHT22;1975;49.356;6.816;2023-06-14T12:30:20;23.10;80.50
3921;DHT22;1975;49.356;6.816;2023-06-14T12:32:45;23.10;80.90
3921;DHT22;1975;49.356;6.816;2023-06-14T12:35:11;23.00;81.60
3921;DHT22;1975;49.356;6.816;2023-06-14T12:37:36;23.00;81.50
3921;DHT22;1975;49.356;6.816;2023-06-14T12:40:02;23.00;81.40
3921;DHT22;1975;49.356;6.816;2023-06-14T12:42:31;22.90;81.30
3921;DHT22;1975;49.356;6.816;2023-06-14T12:44:57;22.90;81.60
3921;DHT22;1975;49.356;6.816;2023-06-14T12:47:22;22.90;81.60
3921;DHT22;1975;49.356;6.816;2023-06-14T12:49:48;22.90;81.60
3921;DHT22;1975;49.356;6.816;2023-06-14T12:52:13;22.90;81.70
3921;DHT22;1975;49.356;6.816;2023-06-14T12:54:38;22.90;81.70
3921;DHT22;1975;49.356;6.816;2023-06-14T12:57:05;22.90;81.70
3921;DHT22;1975;49.356;6.816;2023-06-14T12:59:30;22.90;81.70
3921;DHT22;1975;49.356;6.816;2023-06-14T13:02:14;23.00;81.90
3921;DHT22;1975;49.356;6.816;2023-06-14T13:04:40;23.00;81.90
3921;DHT22;1975;49.356;6.816;2023-06-14T13:07:05;22.90;82.10
3921;DHT22;1975;49.356;6.816;2023-06-14T13:09:31;23.00;82.30
3921;DHT22;1975;49.356;6.816;2023-06-14T13:11:56;23.00;81.80
3921;DHT22;1975;49.356;6.816;2023-06-14T13:14:22;23.10;81.60
3921;DHT22;1975;49.356;6.816;2023-06-14T13:16:48;23.10;81.30
3921;DHT22;1975;49.356;6.816;2023-06-14T13:19:13;23.10;81.40
3921;DHT22;1975;49.356;6.816;2023-06-14T13:21:38;23.00;81.30
3921;DHT22;1975;49.356;6.816;2023-06-14T13:24:04;23.00;81.40
3921;DHT22;1975;49.356;6.816;2023-06-14T13:26:30;23.00;81.90
3921;DHT22;1975;49.356;6.816;2023-06-14T13:28:55;23.00;82.20
3921;DHT22;1975;49.356;6.816;2023-06-14T13:31:20;23.10;82.10
3921;DHT22;1975;49.356;6.816;2023-06-14T13:33:46;23.20;81.00
3921;DHT22;1975;49.356;6.816;2023-06-14T13:36:11;23.20;81.00
3921;DHT22;1975;49.356;6.816;2023-06-14T13:38:37;23.20;80.80
3921;DHT22;1975;49.356;6.816;2023-06-14T13:41:02;23.20;81.00
3921;DHT22;1975;49.356;6.816;2023-06-14T13:43:28;23.20;81.30
3921;DHT22;1975;49.356;6.816;2023-06-14T13:45:53;23.20;81.50
3921;DHT22;1975;49.356;6.816;2023-06-14T13:48:19;23.20;81.30
3921;DHT22;1975;49.356;6.816;2023-06-14T13:50:44;23.30;81.40
3921;DHT22;1975;49.356;6.816;2023-06-14T13:53:11;23.20;81.40
3921;DHT22;1975;49.356;6.816;2023-06-14T13:55:36;23.30;81.00
3921;DHT22;1975;49.356;6.816;2023-06-14T13:58:02;23.30;81.30
3921;DHT22;1975;49.356;6.816;2023-06-14T14:00:27;23.30;81.30
3921;DHT22;1975;49.356;6.816;2023-06-14T14:02:53;23.30;80.90
3921;DHT22;1975;49.356;6.816;2023-06-14T14:05:19;23.30;80.20
3921;DHT22;1975;49.356;6.816;2023-06-14T14:07:45;23.30;80.40
3921;DHT22;1975;49.356;6.816;2023-06-14T14:10:11;23.30;80.70
3921;DHT22;1975;49.356;6.816;2023-06-14T14:12:38;23.40;80.40
3921;DHT22;1975;49.356;6.816;2023-06-14T14:15:05;23.40;80.60
3921;DHT22;1975;49.356;6.816;2023-06-14T14:17:32;23.40;80.50
3921;DHT22;1975;49.356;6.816;2023-06-14T14:19:58;23.40;80.50
3921;DHT22;1975;49.356;6.816;2023-06-14T14:22:24;23.40;80.50
3921;DHT22;1975;49.356;6.816;2023-06-14T14:24:49;23.50;81.10
3921;DHT22;1975;49.356;6.816;2023-06-14T14:27:15;23.40;80.30
3921;DHT22;1975;49.356;6.816;2023-06-14T14:29:40;23.50;80.50
3921;DHT22;1975;49.356;6.816;2023-06-14T14:32:06;23.40;80.50
3921;DHT22;1975;49.356;6.816;2023-06-14T14:34:32;23.50;79.80
3921;DHT22;1975;49.356;6.816;2023-06-14T14:36:57;23.50;79.80
3921;DHT22;1975;49.356;6.816;2023-06-14T14:39:23;23.50;79.60
3921;DHT22;1975;49.356;6.816;2023-06-14T14:41:49;23.50;80.00
3921;DHT22;1975;49.356;6.816;2023-06-14T14:44:15;23.50;80.50
3921;DHT22;1975;49.356;6.816;2023-06-14T14:46:40;23.50;80.60
3921;DHT22;1975;49.356;6.816;2023-06-14T14:49:06;23.50;80.90
3921;DHT22;1975;49.356;6.816;2023-06-14T14:51:31;23.50;81.30
3921;DHT22;1975;49.356;6.816;2023-06-14T14:53:57;23.50;81.30
3921;DHT22;1975;49.356;6.816;2023-06-14T14:56:22;23.50;81.10
3921;DHT22;1975;49.356;6.816;2023-06-14T14:58:48;23.60;80.70
3921;DHT22;1975;49.356;6.816;2023-06-14T15:01:14;23.60;80.60
3921;DHT22;1975;49.356;6.816;2023-06-14T15:03:40;23.70;80.80
3921;DHT22;1975;49.356;6.816;2023-06-14T15:06:05;23.60;80.30
3921;DHT22;1975;49.356;6.816;2023-06-14T15:08:31;23.70;81.30
3921;DHT22;1975;49.356;6.816;2023-06-14T15:10:56;23.70;80.80
3921;DHT22;1975;49.356;6.816;2023-06-14T15:13:22;23.60;80.30
3921;DHT22;1975;49.356;6.816;2023-06-14T15:15:48;23.70;80.00
3921;DHT22;1975;49.356;6.816;2023-06-14T15:18:13;23.70;80.40
3921;DHT22;1975;49.356;6.816;2023-06-14T15:20:40;23.70;80.30
3921;DHT22;1975;49.356;6.816;2023-06-14T15:23:06;23.70;80.20
3921;DHT22;1975;49.356;6.816;2023-06-14T15:25:32;23.70;80.10
3921;DHT22;1975;49.356;6.816;2023-06-14T15:27:58;23.80;79.60
3921;DHT22;1975;49.356;6.816;2023-06-14T15:30:23;23.80;79.90
3921;DHT22;1975;49.356;6.816;2023-06-14T15:32:49;23.80;79.80
3921;DHT22;1975;49.356;6.816;2023-06-14T15:35:16;23.80;79.70
3921;DHT22;1975;49.356;6.816;2023-06-14T15:37:41;23.80;80.20
3921;DHT22;1975;49.356;6.816;2023-06-14T15:40:07;23.80;80.10
3921;DHT22;1975;49.356;6.816;2023-06-14T15:42:32;23.80;80.00
3921;DHT22;1975;49.356;6.816;2023-06-14T15:44:58;23.80;80.10
3921;DHT22;1975;49.356;6.816;2023-06-14T15:47:23;23.80;80.30
3921;DHT22;1975;49.356;6.816;2023-06-14T15:49:49;23.80;80.30
3921;DHT22;1975;49.356;6.816;2023-06-14T15:52:14;23.80;80.30
3921;DHT22;1975;49.356;6.816;2023-06-14T15:54:40;23.80;80.40
3921;DHT22;1975;49.356;6.816;2023-06-14T15:57:05;23.90;80.20
3921;DHT22;1975;49.356;6.816;2023-06-14T16:01:59;24.10;79.40
3921;DHT22;1975;49.356;6.816;2023-06-14T16:04:24;25.10;78.10
3921;DHT22;1975;49.356;6.816;2023-06-14T16:06:50;25.60;76.70
3921;DHT22;1975;49.356;6.816;2023-06-14T16:09:15;26.20;74.50
3921;DHT22;1975;49.356;6.816;2023-06-14T16:11:41;26.40;73.10
3921;DHT22;1975;49.356;6.816;2023-06-14T16:14:06;26.30;73.70
3921;DHT22;1975;49.356;6.816;2023-06-14T16:16:32;26.40;74.50